createdAt,value
2022-11-14T00:01:06.316Z,4.43
2022-11-14T00:04:25.494Z,4.37
2022-11-14T00:06:21.878Z,4.35
2022-11-14T00:08:21.877Z,4.36
2022-11-14T00:10:21.874Z,4.35
2022-11-14T00:12:21.883Z,4.29
2022-11-14T00:14:21.977Z,4.31
2022-11-14T00:16:21.882Z,4.3
2022-11-14T00:19:37.622Z,4.32
2022-11-14T00:21:37.611Z,4.34
2022-11-14T00:23:37.570Z,4.33
2022-11-14T00:25:37.568Z,4.37
2022-11-14T00:27:37.571Z,4.31
2022-11-14T00:29:37.685Z,4.31
2022-11-14T00:31:37.611Z,4.28
2022-11-14T00:34:48.952Z,4.31
2022-11-14T00:36:48.831Z,4.34
2022-11-14T00:38:48.874Z,4.32
2022-11-14T00:40:48.840Z,4.29
2022-11-14T00:42:48.830Z,4.32
2022-11-14T00:44:49.001Z,4.28
2022-11-14T00:46:48.823Z,4.25
2022-11-14T00:50:09.414Z,4.19
2022-11-14T00:52:09.409Z,4.11
2022-11-14T00:54:09.408Z,4.12
2022-11-14T00:56:09.402Z,4.08
2022-11-14T00:58:09.442Z,4.07
2022-11-14T01:00:09.578Z,4.05
2022-11-14T01:02:09.447Z,4.12
2022-11-14T01:04:45.486Z,4.13
2022-11-14T01:06:45.420Z,4.13
2022-11-14T01:08:45.417Z,4.09
2022-11-14T01:10:45.406Z,4.04
2022-11-14T01:12:45.405Z,4.09
2022-11-14T01:14:45.399Z,4.09
2022-11-14T01:16:45.528Z,4.02
2022-11-14T01:20:25.825Z,4.07
2022-11-14T01:22:25.787Z,3.91
2022-11-14T01:24:25.783Z,3.93
2022-11-14T01:26:25.818Z,4.02
2022-11-14T01:28:25.780Z,4.11
2022-11-14T01:30:25.800Z,4.12
2022-11-14T01:32:25.948Z,4.12
2022-11-14T01:34:46.971Z,4.16
2022-11-14T01:36:47.015Z,4.17
2022-11-14T01:38:46.965Z,4.17
2022-11-14T01:40:46.965Z,4.07
2022-11-14T01:42:46.961Z,4
2022-11-14T01:44:46.969Z,3.99
2022-11-14T01:46:46.991Z,3.91
2022-11-14T01:48:47.127Z,3.75
2022-11-14T01:50:21.669Z,3.79
2022-11-14T01:52:21.799Z,3.83
2022-11-14T01:54:21.661Z,3.87
2022-11-14T01:56:21.668Z,3.85
2022-11-14T01:58:21.668Z,3.88
2022-11-14T02:00:21.658Z,3.85
2022-11-14T02:02:21.684Z,3.77
2022-11-14T02:06:05.243Z,3.73
2022-11-14T02:08:05.155Z,3.58
2022-11-14T02:10:05.131Z,3.65
2022-11-14T02:12:05.120Z,3.61
2022-11-14T02:14:05.149Z,3.6
2022-11-14T02:16:05.103Z,3.74
2022-11-14T02:18:05.164Z,3.77
2022-11-14T02:20:51.276Z,3.75
2022-11-14T02:22:51.388Z,3.69
2022-11-14T02:24:51.297Z,3.68
2022-11-14T02:26:51.399Z,3.71
2022-11-14T02:28:51.290Z,3.68
2022-11-14T02:30:51.301Z,3.65
2022-11-14T02:33:09.842Z,3.53
2022-11-14T02:36:28.285Z,3.54
2022-11-14T02:38:28.692Z,3.54
2022-11-14T02:40:28.298Z,3.53
2022-11-14T02:42:28.296Z,3.57
2022-11-14T02:44:28.303Z,3.51
2022-11-14T02:46:28.304Z,3.38
2022-11-14T02:48:28.623Z,3.24
2022-11-14T02:50:51.528Z,3.39
2022-11-14T02:52:51.479Z,3.51
2022-11-14T02:54:54.402Z,3.44
2022-11-14T02:56:51.519Z,3.18
2022-11-14T02:58:51.492Z,3.19
2022-11-14T03:01:14.011Z,3.25
2022-11-14T03:02:51.481Z,3.41
2022-11-14T03:06:06.999Z,3.45
2022-11-14T03:08:07.012Z,3.34
2022-11-14T03:10:07.163Z,3.37
2022-11-14T03:12:07.206Z,3.32
2022-11-14T03:14:07.079Z,3.34
2022-11-14T03:16:07.025Z,3.35
2022-11-14T03:18:06.993Z,3.29
2022-11-14T03:21:04.007Z,3.18
2022-11-14T03:23:03.976Z,3.15
2022-11-14T03:25:03.976Z,3.13
2022-11-14T03:27:04.072Z,3.13
2022-11-14T03:29:04.023Z,3.15
2022-11-14T03:31:03.942Z,3.19
2022-11-14T03:33:03.985Z,3.19
2022-11-14T03:35:03.946Z,3.18
2022-11-14T03:36:57.921Z,2.99
2022-11-14T03:38:57.943Z,3.15
2022-11-14T03:40:57.902Z,3.13
2022-11-14T03:42:58.012Z,3.08
2022-11-14T03:44:57.938Z,3.06
2022-11-14T03:46:57.893Z,2.93
2022-11-14T03:48:57.900Z,2.92
2022-11-14T03:51:20.335Z,2.88
2022-11-14T03:53:20.320Z,2.76
2022-11-14T03:55:20.285Z,2.62
2022-11-14T03:57:20.327Z,2.33
2022-11-14T03:59:20.389Z,2.52
2022-11-14T04:01:20.316Z,2.61
2022-11-14T04:03:20.340Z,2.66
2022-11-14T04:05:20.339Z,2.74
2022-11-14T04:07:25.715Z,2.77
2022-11-14T04:09:25.604Z,2.76
2022-11-14T04:11:25.600Z,2.71
2022-11-14T04:13:25.639Z,2.83
2022-11-14T04:15:25.727Z,2.84
2022-11-14T04:17:25.643Z,2.79
2022-11-14T04:19:25.642Z,2.83
2022-11-14T04:21:51.618Z,2.87
2022-11-14T04:23:51.624Z,2.84
2022-11-14T04:25:51.682Z,2.92
2022-11-14T04:27:51.618Z,2.87
2022-11-14T04:29:51.902Z,2.51
2022-11-14T04:31:51.715Z,2.38
2022-11-14T04:33:51.652Z,2.28
2022-11-14T04:37:02.079Z,2.35
2022-11-14T04:39:02.157Z,2.39
2022-11-14T04:41:02.126Z,2.65
2022-11-14T04:43:02.064Z,2.82
2022-11-14T04:45:02.429Z,2.9
2022-11-14T04:47:02.193Z,2.92
2022-11-14T04:49:02.084Z,2.9
2022-11-14T04:52:41.423Z,2.81
2022-11-14T04:54:41.433Z,2.85
2022-11-14T04:56:41.409Z,2.93
2022-11-14T04:58:41.399Z,2.89
2022-11-14T05:00:41.784Z,2.81
2022-11-14T05:02:41.477Z,2.86
2022-11-14T05:04:41.393Z,2.89
2022-11-14T05:07:41.880Z,2.82
2022-11-14T05:09:41.828Z,2.79
2022-11-14T05:11:41.827Z,2.6
2022-11-14T05:13:41.830Z,2.29
2022-11-14T05:15:41.841Z,2.3
2022-11-14T05:17:42.210Z,2.39
2022-11-14T05:19:41.843Z,2.72
2022-11-14T05:22:58.220Z,2.97
2022-11-14T05:24:58.196Z,2.9
2022-11-14T05:26:58.178Z,2.85
2022-11-14T05:28:58.198Z,2.84
2022-11-14T05:30:58.182Z,2.89
2022-11-14T05:32:58.151Z,2.92
2022-11-14T05:34:58.236Z,2.67
2022-11-14T05:37:57.451Z,2.17
2022-11-14T05:39:53.337Z,2.16
2022-11-14T05:41:53.282Z,2.12
2022-11-14T05:43:53.292Z,2.33
2022-11-14T05:45:53.260Z,2.36
2022-11-14T05:47:53.257Z,2.51
2022-11-14T05:49:53.307Z,2.55
2022-11-14T05:53:26.297Z,2.68
2022-11-14T05:55:26.311Z,2.57
2022-11-14T05:57:26.256Z,2.55
2022-11-14T05:59:26.258Z,2.64
2022-11-14T06:01:26.263Z,2.57
2022-11-14T06:03:26.302Z,2.51
2022-11-14T06:05:26.257Z,2.4
2022-11-14T06:08:03.628Z,2.59
2022-11-14T06:10:03.603Z,2.56
2022-11-14T06:12:03.587Z,2.59
2022-11-14T06:14:06.927Z,2.5
2022-11-14T06:16:03.586Z,2.49
2022-11-14T06:18:03.755Z,2.88
2022-11-14T06:20:03.615Z,3.1
2022-11-14T06:23:53.362Z,3.44
2022-11-14T06:25:53.324Z,3.4
2022-11-14T06:27:53.399Z,3.18
2022-11-14T06:29:53.342Z,3.35
2022-11-14T06:31:53.327Z,3.48
2022-11-14T06:33:53.287Z,3.52
2022-11-14T06:35:53.289Z,3.39
2022-11-14T06:38:32.281Z,3.26
2022-11-14T06:40:31.967Z,3.08
2022-11-14T06:42:32.034Z,3.24
2022-11-14T06:44:31.985Z,3.4
2022-11-14T06:46:31.936Z,3.32
2022-11-14T06:48:32.251Z,2.81
2022-11-14T06:50:31.978Z,3.04
2022-11-14T06:54:03.846Z,3.44
2022-11-14T06:56:03.795Z,3.27
2022-11-14T06:58:03.881Z,3.21
2022-11-14T07:00:03.820Z,3.38
2022-11-14T07:02:03.852Z,3.65
2022-11-14T07:04:03.770Z,3.54
2022-11-14T07:06:03.795Z,3.92
2022-11-14T07:09:24.821Z,3.47
2022-11-14T07:11:24.784Z,3.3
2022-11-14T07:13:24.808Z,3.55
2022-11-14T07:15:24.828Z,3.52
2022-11-14T07:17:28.501Z,3.57
2022-11-14T07:19:24.823Z,3.4
2022-11-14T07:21:24.764Z,3.62
2022-11-14T07:23:45.614Z,3.6
2022-11-14T07:25:45.445Z,3.89
2022-11-14T07:27:45.535Z,3.69
2022-11-14T07:29:45.550Z,3.77
2022-11-14T07:31:45.385Z,4.38
2022-11-14T07:33:45.502Z,4.66
2022-11-14T07:35:45.489Z,4.39
2022-11-14T07:39:42.139Z,4.05
2022-11-14T07:41:42.088Z,3.74
2022-11-14T07:43:42.250Z,3.98
2022-11-14T07:45:42.112Z,3.78
2022-11-14T07:47:42.219Z,3.62
2022-11-14T07:49:42.215Z,3.62
2022-11-14T07:51:42.110Z,3.6
2022-11-14T07:53:57.318Z,3.97
2022-11-14T07:55:57.282Z,3.89
2022-11-14T07:57:57.322Z,3.93
2022-11-14T07:59:57.435Z,4.26
2022-11-14T08:01:57.300Z,4.44
2022-11-14T08:03:57.295Z,4.47
2022-11-14T08:05:57.282Z,4.43
2022-11-14T08:07:57.271Z,4.52
2022-11-14T08:09:42.468Z,4.31
2022-11-14T08:11:42.470Z,4.54
2022-11-14T08:13:42.504Z,4.62
2022-11-14T08:15:42.609Z,4.7
2022-11-14T08:17:42.484Z,4.69
2022-11-14T08:19:42.578Z,4.48
2022-11-14T08:21:42.501Z,4.61
2022-11-14T08:24:55.792Z,4.93
2022-11-14T08:26:55.791Z,4.81
2022-11-14T08:28:55.808Z,5.14
2022-11-14T08:30:55.741Z,5.07
2022-11-14T08:32:55.790Z,4.65
2022-11-14T08:34:55.806Z,4.38
2022-11-14T08:36:55.748Z,4.77
2022-11-14T08:39:32.025Z,5.04
2022-11-14T08:41:32.300Z,5.19
2022-11-14T08:43:32.403Z,4.6
2022-11-14T08:45:32.019Z,4.93
2022-11-14T08:47:32.157Z,5.4
2022-11-14T08:49:32.193Z,5.48
2022-11-14T08:51:32.054Z,5.17
2022-11-14T08:55:11.936Z,5.91
2022-11-14T08:57:12.021Z,6.07
2022-11-14T08:59:11.930Z,6.01
2022-11-14T09:01:11.939Z,5.9
2022-11-14T09:03:12.051Z,6.22
2022-11-14T09:05:11.945Z,6.42
2022-11-14T09:07:12.184Z,5.98
2022-11-14T09:09:46.520Z,5.89
2022-11-14T09:11:46.519Z,5.88
2022-11-14T09:13:46.487Z,6.05
2022-11-14T09:15:46.508Z,5.94
2022-11-14T09:17:46.464Z,6.32
2022-11-14T09:19:46.487Z,6.06
2022-11-14T09:21:46.469Z,6.2
2022-11-14T09:23:46.509Z,6.66
2022-11-14T09:25:37.740Z,7.25
2022-11-14T09:27:37.709Z,7.28
2022-11-14T09:29:37.946Z,7.29
2022-11-14T09:31:37.698Z,6.28
2022-11-14T09:33:37.742Z,6.74
2022-11-14T09:35:37.702Z,6.21
2022-11-14T09:37:37.709Z,6.71
2022-11-14T09:40:50.487Z,6
2022-11-14T09:42:50.517Z,6.24
2022-11-14T09:44:50.440Z,6.07
2022-11-14T09:46:50.492Z,6.49
2022-11-14T09:48:50.722Z,6.78
2022-11-14T09:50:50.426Z,7.19
2022-11-14T09:52:50.476Z,7.09
2022-11-14T09:55:36.789Z,7.03
2022-11-14T09:57:33.549Z,7.25
2022-11-14T09:59:33.541Z,7.32
2022-11-14T10:01:33.646Z,7.16
2022-11-14T10:03:33.562Z,7.18
2022-11-14T10:05:33.633Z,7.48
2022-11-14T10:07:33.561Z,7.49
2022-11-14T10:11:02.175Z,7.62
2022-11-14T10:13:02.167Z,7.88
2022-11-14T10:15:02.172Z,8.28
2022-11-14T10:17:05.288Z,8.24
2022-11-14T10:19:02.145Z,8.46
2022-11-14T10:21:02.172Z,8.59
2022-11-14T10:23:02.134Z,8.88
2022-11-14T10:25:49.256Z,8.64
2022-11-14T10:27:54.130Z,8.8
2022-11-14T10:29:49.251Z,9.1
2022-11-14T10:31:49.245Z,9.14
2022-11-14T10:33:49.256Z,9.49
2022-11-14T10:35:49.250Z,9.44
2022-11-14T10:37:49.230Z,9.71
2022-11-14T10:41:50.242Z,9.66
2022-11-14T10:43:29.091Z,9.93
2022-11-14T10:45:29.024Z,9.99
2022-11-14T10:47:29.053Z,10.15
2022-11-14T10:49:29.070Z,10.38
2022-11-14T10:51:29.006Z,10.37
2022-11-14T10:53:29.052Z,9.85
2022-11-14T10:56:24.218Z,10.36
2022-11-14T10:58:24.228Z,10.67
2022-11-14T11:00:24.252Z,10.91
2022-11-14T11:02:24.206Z,10.78
2022-11-14T11:04:24.285Z,10.95
2022-11-14T11:06:24.228Z,11.09
2022-11-14T11:08:45.236Z,11.1
2022-11-14T11:11:52.913Z,11.05
2022-11-14T11:13:55.724Z,11.21
2022-11-14T11:15:52.935Z,11.63
2022-11-14T11:17:52.862Z,11.67
2022-11-14T11:19:52.884Z,11.71
2022-11-14T11:21:53.065Z,11.91
2022-11-14T11:23:52.994Z,12.03
2022-11-14T11:26:38.731Z,12.01
2022-11-14T11:28:38.787Z,12.32
2022-11-14T11:30:38.725Z,12.19
2022-11-14T11:32:38.765Z,12.3
2022-11-14T11:34:38.743Z,12.47
2022-11-14T11:36:38.735Z,12.59
2022-11-14T11:38:38.733Z,12.71
2022-11-14T11:42:16.331Z,12.81
2022-11-14T11:44:16.333Z,13.11
2022-11-14T11:46:16.376Z,13.27
2022-11-14T11:48:16.349Z,13.19
2022-11-14T11:50:16.333Z,13.35
2022-11-14T11:52:16.324Z,13.54
2022-11-14T11:54:16.337Z,13.65
2022-11-14T11:57:05.151Z,13.72
2022-11-14T11:59:05.115Z,13.94
2022-11-14T12:01:05.147Z,14.02
2022-11-14T12:03:05.243Z,14
2022-11-14T12:05:05.161Z,13.9
2022-11-14T12:07:05.161Z,13.85
2022-11-14T12:09:05.131Z,14.07
2022-11-14T12:12:12.657Z,14.3
2022-11-14T12:14:12.033Z,14.16
2022-11-14T12:16:13.302Z,14.19
2022-11-14T12:18:12.048Z,14.3
2022-11-14T12:20:12.056Z,14.51
2022-11-14T12:22:12.042Z,14.66
2022-11-14T12:24:12.039Z,14.54
2022-11-14T12:27:01.321Z,14.47
2022-11-14T12:29:01.315Z,14.68
2022-11-14T12:31:01.337Z,14.82
2022-11-14T12:33:01.345Z,14.97
2022-11-14T12:35:01.332Z,14.96
2022-11-14T12:37:01.407Z,14.95
2022-11-14T12:39:01.319Z,15.13
2022-11-14T12:42:22.407Z,15.14
2022-11-14T12:44:22.412Z,15.16
2022-11-14T12:46:22.421Z,15.08
2022-11-14T12:48:22.351Z,15.07
2022-11-14T12:50:22.337Z,15.15
2022-11-14T12:52:22.501Z,15.18
2022-11-14T12:54:22.346Z,15.18
2022-11-14T12:57:43.126Z,15.34
2022-11-14T12:59:43.134Z,15.25
2022-11-14T13:01:43.164Z,15.32
2022-11-14T13:03:43.092Z,15.27
2022-11-14T13:05:43.139Z,15.21
2022-11-14T13:07:43.218Z,15.15
2022-11-14T13:09:43.118Z,15.16
2022-11-14T13:13:05.739Z,14.93
2022-11-14T13:15:05.709Z,15.03
2022-11-14T13:17:05.650Z,14.95
2022-11-14T13:19:05.656Z,14.83
2022-11-14T13:21:05.665Z,14.75
2022-11-14T13:23:05.686Z,14.66
2022-11-14T13:25:05.697Z,14.56
2022-11-14T13:28:19.084Z,14.4
2022-11-14T13:30:12.423Z,14.28
2022-11-14T13:32:12.447Z,14.26
2022-11-14T13:34:12.417Z,14.17
2022-11-14T13:36:12.417Z,14.09
2022-11-14T13:38:12.518Z,13.93
2022-11-14T13:40:12.426Z,13.92
2022-11-14T13:43:37.166Z,13.85
2022-11-14T13:45:37.158Z,13.77
2022-11-14T13:47:37.213Z,13.67
2022-11-14T13:49:37.173Z,13.63
2022-11-14T13:51:43.103Z,13.56
2022-11-14T13:53:37.328Z,13.52
2022-11-14T13:55:37.379Z,13.4
2022-11-14T13:58:11.081Z,13.33
2022-11-14T14:00:14.203Z,13.24
2022-11-14T14:02:11.050Z,13.14
2022-11-14T14:04:11.017Z,13.04
2022-11-14T14:06:11.000Z,12.96
2022-11-14T14:08:11.136Z,12.9
2022-11-14T14:10:11.051Z,12.82
2022-11-14T14:13:23.087Z,12.72
2022-11-14T14:15:23.133Z,12.61
2022-11-14T14:17:23.401Z,12.52
2022-11-14T14:19:25.827Z,12.41
2022-11-14T14:21:23.078Z,12.34
2022-11-14T14:23:23.131Z,12.17
2022-11-14T14:25:23.912Z,12.15
2022-11-14T14:28:43.112Z,12.01
2022-11-14T14:30:42.946Z,11.92
2022-11-14T14:32:42.966Z,11.94
2022-11-14T14:34:42.979Z,11.86
2022-11-14T14:36:43.020Z,11.83
2022-11-14T14:38:42.974Z,11.79
2022-11-14T14:40:43.291Z,11.71
2022-11-14T14:44:15.856Z,11.57
2022-11-14T14:46:15.902Z,11.44
2022-11-14T14:48:15.879Z,11.28
2022-11-14T14:50:15.834Z,11.19
2022-11-14T14:52:15.855Z,11.12
2022-11-14T14:54:15.841Z,11.05
2022-11-14T14:56:15.881Z,10.96
2022-11-14T14:59:04.076Z,10.82
2022-11-14T15:01:04.178Z,10.76
2022-11-14T15:03:04.249Z,10.73
2022-11-14T15:05:04.093Z,10.74
2022-11-14T15:07:04.246Z,10.7
2022-11-14T15:09:04.105Z,10.59
2022-11-14T15:11:04.157Z,10.48
2022-11-14T15:13:53.398Z,10.39
2022-11-14T15:15:53.398Z,10.32
2022-11-14T15:17:53.411Z,10.29
2022-11-14T15:19:53.477Z,10.18
2022-11-14T15:21:53.372Z,10.17
2022-11-14T15:23:53.378Z,10.15
2022-11-14T15:25:53.381Z,10.08
2022-11-14T15:29:34.205Z,9.96
2022-11-14T15:31:34.145Z,10
2022-11-14T15:33:34.162Z,9.85
2022-11-14T15:35:34.212Z,9.82
2022-11-14T15:37:34.138Z,9.79
2022-11-14T15:39:34.142Z,9.75
2022-11-14T15:41:34.187Z,9.79
2022-11-14T15:44:44.400Z,9.77
2022-11-14T15:46:44.414Z,9.73
2022-11-14T15:48:44.377Z,9.66
2022-11-14T15:50:44.479Z,9.53
2022-11-14T15:52:44.398Z,9.49
2022-11-14T15:54:44.383Z,9.47
2022-11-14T15:56:44.461Z,9.42
2022-11-14T15:59:13.869Z,9.37
2022-11-14T16:01:13.964Z,9.39
2022-11-14T16:03:13.859Z,9.31
2022-11-14T16:05:13.868Z,9.31
2022-11-14T16:07:14.017Z,9.23
2022-11-14T16:09:13.841Z,9.22
2022-11-14T16:11:13.913Z,9.21
2022-11-14T16:13:13.840Z,9.21
2022-11-14T16:14:27.337Z,9.22
2022-11-14T16:16:27.408Z,9.2
2022-11-14T16:18:27.332Z,9.16
2022-11-14T16:20:27.315Z,9.07
2022-11-14T16:22:27.336Z,9.02
2022-11-14T16:24:31.160Z,9.06
2022-11-14T16:26:27.327Z,9.01
2022-11-14T16:29:39.851Z,8.99
2022-11-14T16:31:39.851Z,8.98
2022-11-14T16:33:39.822Z,8.94
2022-11-14T16:35:39.858Z,8.9
2022-11-14T16:37:39.889Z,8.79
2022-11-14T16:39:39.817Z,8.76
2022-11-14T16:41:39.826Z,8.65
2022-11-14T16:45:09.985Z,8.76
2022-11-14T16:47:09.923Z,8.74
2022-11-14T16:49:09.881Z,8.69
2022-11-14T16:51:20.447Z,8.72
2022-11-14T16:53:10.138Z,8.73
2022-11-14T16:55:09.893Z,8.73
2022-11-14T16:57:09.868Z,8.74
2022-11-14T17:00:01.727Z,8.65
2022-11-14T17:02:01.642Z,8.59
2022-11-14T17:04:01.633Z,8.57
2022-11-14T17:06:01.625Z,8.6
2022-11-14T17:08:01.598Z,8.65
2022-11-14T17:10:01.636Z,8.62
2022-11-14T17:12:01.609Z,8.66
2022-11-14T17:15:44.265Z,8.62
2022-11-14T17:17:44.251Z,8.69
2022-11-14T17:19:44.286Z,8.6
2022-11-14T17:21:44.250Z,8.54
2022-11-14T17:23:44.261Z,8.43
2022-11-14T17:25:44.300Z,8.31
2022-11-14T17:27:44.249Z,8.18
2022-11-14T17:30:58.618Z,8.31
2022-11-14T17:32:58.610Z,8.26
2022-11-14T17:34:58.552Z,8.19
2022-11-14T17:36:58.533Z,8.21
2022-11-14T17:38:58.729Z,8.23
2022-11-14T17:40:58.493Z,8.18
2022-11-14T17:42:58.616Z,8.08
2022-11-14T17:45:50.522Z,7.9
2022-11-14T17:47:50.501Z,7.98
2022-11-14T17:49:50.506Z,7.9
2022-11-14T17:51:50.556Z,7.87
2022-11-14T17:53:50.489Z,7.86
2022-11-14T17:55:50.612Z,7.85
2022-11-14T17:57:50.544Z,7.94
2022-11-14T18:00:37.657Z,7.78
2022-11-14T18:02:37.677Z,7.79
2022-11-14T18:04:37.665Z,7.83
2022-11-14T18:06:37.624Z,7.9
2022-11-14T18:08:37.708Z,7.9
2022-11-14T18:10:37.614Z,7.89
2022-11-14T18:12:37.684Z,7.78
2022-11-14T18:15:43.748Z,7.66
2022-11-14T18:17:43.689Z,7.52
2022-11-14T18:19:43.677Z,7.59
2022-11-14T18:21:44.169Z,7.58
2022-11-14T18:23:43.702Z,7.54
2022-11-14T18:25:43.698Z,7.55
2022-11-14T18:27:43.689Z,7.66
2022-11-14T18:29:43.725Z,7.71
2022-11-14T18:30:50.710Z,7.68
2022-11-14T18:32:48.156Z,7.65
2022-11-14T18:34:48.216Z,7.71
2022-11-14T18:36:48.124Z,7.6
2022-11-14T18:38:48.584Z,7.62
2022-11-14T18:40:50.682Z,7.54
2022-11-14T18:42:48.178Z,7.54
2022-11-14T18:44:48.144Z,7.5
2022-11-14T18:46:49.768Z,7.51
2022-11-14T18:48:49.784Z,7.48
2022-11-14T18:50:49.740Z,7.34
2022-11-14T18:52:49.867Z,7.3
2022-11-14T18:54:49.756Z,7.28
2022-11-14T18:56:49.738Z,7.27
2022-11-14T18:58:49.813Z,7.27
2022-11-14T19:01:48.775Z,7.27
2022-11-14T19:03:48.780Z,7.26
2022-11-14T19:05:48.771Z,7.24
2022-11-14T19:07:48.784Z,7.2
2022-11-14T19:09:48.752Z,7.13
2022-11-14T19:11:48.747Z,7.11
2022-11-14T19:13:48.785Z,7.09
2022-11-14T19:17:07.341Z,6.97
2022-11-14T19:19:07.396Z,7.04
2022-11-14T19:21:07.685Z,7.05
2022-11-14T19:23:07.348Z,7.1
2022-11-14T19:25:07.526Z,7.12
2022-11-14T19:27:07.349Z,7.05
2022-11-14T19:29:07.381Z,7.03
2022-11-14T19:32:06.055Z,6.94
2022-11-14T19:34:06.091Z,6.83
2022-11-14T19:36:06.060Z,6.84
2022-11-14T19:38:06.055Z,6.87
2022-11-14T19:40:06.081Z,6.83
2022-11-14T19:42:06.046Z,6.81
2022-11-14T19:44:06.111Z,6.84
2022-11-14T19:47:05.313Z,6.71
2022-11-14T19:49:05.327Z,6.8
2022-11-14T19:51:05.360Z,6.72
2022-11-14T19:53:05.339Z,6.65
2022-11-14T19:55:05.287Z,6.64
2022-11-14T19:57:05.303Z,6.72
2022-11-14T19:59:08.400Z,6.71
2022-11-14T20:02:31.845Z,6.73
2022-11-14T20:04:35.459Z,6.68
2022-11-14T20:06:31.766Z,6.66
2022-11-14T20:08:31.799Z,6.53
2022-11-14T20:10:31.799Z,6.56
2022-11-14T20:12:31.832Z,6.54
2022-11-14T20:14:31.772Z,6.45
2022-11-14T20:17:41.546Z,6.42
2022-11-14T20:19:41.524Z,6.46
2022-11-14T20:21:41.498Z,6.44
2022-11-14T20:23:41.509Z,6.36
2022-11-14T20:25:41.550Z,6.4
2022-11-14T20:27:41.480Z,6.39
2022-11-14T20:29:41.542Z,6.4
2022-11-14T20:32:16.112Z,6.43
2022-11-14T20:34:15.993Z,6.34
2022-11-14T20:36:15.976Z,6.35
2022-11-14T20:38:15.964Z,6.35
2022-11-14T20:40:16.005Z,6.25
2022-11-14T20:42:16.037Z,6.21
2022-11-14T20:44:16.012Z,6.12
2022-11-14T20:47:46.404Z,6.17
2022-11-14T20:49:46.402Z,6.12
2022-11-14T20:51:46.349Z,6.18
2022-11-14T20:53:46.429Z,6.24
2022-11-14T20:55:46.405Z,6.18
2022-11-14T20:57:46.390Z,6.17
2022-11-14T20:59:46.354Z,6.18
2022-11-14T21:02:53.227Z,6.23
2022-11-14T21:04:53.232Z,6.2
2022-11-14T21:06:53.298Z,6.09
2022-11-14T21:08:53.232Z,6.13
2022-11-14T21:10:53.226Z,6.12
2022-11-14T21:12:53.189Z,6.07
2022-11-14T21:14:53.223Z,6.07
2022-11-14T21:17:53.120Z,6.1
2022-11-14T21:19:53.037Z,6.03
2022-11-14T21:21:53.060Z,6.02
2022-11-14T21:23:53.056Z,6.03
2022-11-14T21:25:53.007Z,5.91
2022-11-14T21:27:53.029Z,5.96
2022-11-14T21:29:53.265Z,5.94
2022-11-14T21:32:43.386Z,5.91
2022-11-14T21:34:43.337Z,5.9
2022-11-14T21:36:45.323Z,5.93
2022-11-14T21:38:43.417Z,5.87
2022-11-14T21:40:43.342Z,5.86
2022-11-14T21:42:43.327Z,5.79
2022-11-14T21:44:43.371Z,5.71
2022-11-14T21:46:43.347Z,5.7
2022-11-14T21:48:01.249Z,5.66
2022-11-14T21:50:01.662Z,5.59
2022-11-14T21:52:01.240Z,5.66
2022-11-14T21:54:01.291Z,5.6
2022-11-14T21:56:01.247Z,5.61
2022-11-14T21:58:01.248Z,5.58
2022-11-14T22:00:01.244Z,5.61
2022-11-14T22:03:49.243Z,5.57
2022-11-14T22:05:49.225Z,5.55
2022-11-14T22:07:49.261Z,5.58
2022-11-14T22:09:49.241Z,5.47
2022-11-14T22:11:49.204Z,5.42
2022-11-14T22:13:49.214Z,5.44
2022-11-14T22:15:49.208Z,5.43
2022-11-14T22:18:35.000Z,5.45
2022-11-14T22:20:34.961Z,5.42
2022-11-14T22:22:34.968Z,5.41
2022-11-14T22:24:35.007Z,5.38
2022-11-14T22:26:34.987Z,5.29
2022-11-14T22:28:34.974Z,5.26
2022-11-14T22:30:34.946Z,5.28
2022-11-14T22:33:31.632Z,5.23
2022-11-14T22:35:31.472Z,5.25
2022-11-14T22:37:31.356Z,5.27
2022-11-14T22:39:31.417Z,5.25
2022-11-14T22:41:32.914Z,5.2
2022-11-14T22:43:31.749Z,5.24
2022-11-14T22:45:31.369Z,5.22
2022-11-14T22:47:31.363Z,5.28
2022-11-14T22:49:04.608Z,5.23
2022-11-14T22:51:04.576Z,5.21
2022-11-14T22:53:04.565Z,5.03
2022-11-14T22:55:04.592Z,5.1
2022-11-14T22:57:04.556Z,5.11
2022-11-14T22:59:04.611Z,5.09
2022-11-14T23:01:04.583Z,5.07
2022-11-14T23:03:48.383Z,5.07
2022-11-14T23:05:48.195Z,5.07
2022-11-14T23:07:48.200Z,4.97
2022-11-14T23:09:48.249Z,4.95
2022-11-14T23:11:48.216Z,4.95
2022-11-14T23:13:48.231Z,4.95
2022-11-14T23:15:48.214Z,4.88
2022-11-14T23:17:48.214Z,4.89
2022-11-14T23:19:33.407Z,4.85
2022-11-14T23:21:33.021Z,4.78
2022-11-14T23:23:33.342Z,4.8
2022-11-14T23:25:33.063Z,4.85
2022-11-14T23:27:33.019Z,4.8
2022-11-14T23:29:33.052Z,4.76
2022-11-14T23:31:33.032Z,4.68
2022-11-14T23:34:13.028Z,4.68
2022-11-14T23:36:13.025Z,4.66
2022-11-14T23:38:13.042Z,4.61
2022-11-14T23:40:13.012Z,4.62
2022-11-14T23:42:13.064Z,4.61
2022-11-14T23:44:12.999Z,4.63
2022-11-14T23:46:13.044Z,4.61
2022-11-14T23:48:13.029Z,4.62
2022-11-14T23:49:33.744Z,4.62
2022-11-14T23:51:33.813Z,4.54
2022-11-14T23:53:34.005Z,4.51
2022-11-14T23:55:33.759Z,4.5
2022-11-14T23:57:33.722Z,4.51
2022-11-14T23:59:33.715Z,4.51
